sensor_id;sensor_type;location;lat;lon;timestamp;pressure;altitude;pressure_sealevel;temperature
64488;BMP280;50864;45.050;39.014;2022-09-02T00:00:51;100869.59;;;23.81
64488;BMP280;50864;45.050;39.014;2022-09-02T00:03:18;100881.72;;;23.80
64488;BMP280;50864;45.050;39.014;2022-09-02T00:05:45;100879.34;;;23.78
64488;BMP280;50864;45.050;39.014;2022-09-02T00:08:11;100889.88;;;23.76
64488;BMP280;50864;45.050;39.014;2022-09-02T00:10:41;100896.09;;;23.77
64488;BMP280;50864;45.050;39.014;2022-09-02T00:13:10;100894.94;;;23.78
64488;BMP280;50864;45.050;39.014;2022-09-02T00:15:36;100907.47;;;23.79
64488;BMP280;50864;45.050;39.014;2022-09-02T00:18:04;100913.34;;;23.81
64488;BMP280;50864;45.050;39.014;2022-09-02T00:20:32;100914.13;;;23.81
64488;BMP280;50864;45.050;39.014;2022-09-02T00:22:58;100917.25;;;23.83
64488;BMP280;50864;45.050;39.014;2022-09-02T00:25:25;100921.94;;;23.83
64488;BMP280;50864;45.050;39.014;2022-09-02T00:27:51;100921.94;;;23.83
64488;BMP280;50864;45.050;39.014;2022-09-02T00:30:17;100926.59;;;23.82
64488;BMP280;50864;45.050;39.014;2022-09-02T00:32:43;100934.03;;;23.82
64488;BMP280;50864;45.050;39.014;2022-09-02T00:35:09;100927.41;;;23.83
64488;BMP280;50864;45.050;39.014;2022-09-02T00:37:36;100925.06;;;23.81
64488;BMP280;50864;45.050;39.014;2022-09-02T00:40:04;100932.06;;;23.82
64488;BMP280;50864;45.050;39.014;2022-09-02T00:42:33;100936.78;;;23.82
64488;BMP280;50864;45.050;39.014;2022-09-02T00:45:00;100930.91;;;23.80
64488;BMP280;50864;45.050;39.014;2022-09-02T00:47:27;100933.59;;;23.76
64488;BMP280;50864;45.050;39.014;2022-09-02T00:49:56;100932.37;;;23.74
64488;BMP280;50864;45.050;39.014;2022-09-02T00:52:32;100948.34;;;23.72
64488;BMP280;50864;45.050;39.014;2022-09-02T00:55:04;100953.81;;;23.68
64488;BMP280;50864;45.050;39.014;2022-09-02T00:57:39;100962.34;;;23.67
64488;BMP280;50864;45.050;39.014;2022-09-02T01:02:38;100963.84;;;23.61
64488;BMP280;50864;45.050;39.014;2022-09-02T01:05:08;100969.66;;;23.59
64488;BMP280;50864;45.050;39.014;2022-09-02T01:07:37;100973.56;;;23.58
64488;BMP280;50864;45.050;39.014;2022-09-02T01:10:12;100968.47;;;23.57
64488;BMP280;50864;45.050;39.014;2022-09-02T01:12:39;100977.44;;;23.53
64488;BMP280;50864;45.050;39.014;2022-09-02T01:15:07;100977.78;;;23.52
64488;BMP280;50864;45.050;39.014;2022-09-02T01:17:35;100990.59;;;23.48
64488;BMP280;50864;45.050;39.014;2022-09-02T01:20:06;100987.03;;;23.44
64488;BMP280;50864;45.050;39.014;2022-09-02T01:22:38;100993.25;;;23.41
64488;BMP280;50864;45.050;39.014;2022-09-02T01:25:09;100993.19;;;23.37
64488;BMP280;50864;45.050;39.014;2022-09-02T01:27:36;100993.53;;;23.32
64488;BMP280;50864;45.050;39.014;2022-09-02T01:30:05;100993.13;;;23.30
64488;BMP280;50864;45.050;39.014;2022-09-02T01:32:31;100990.75;;;23.29
64488;BMP280;50864;45.050;39.014;2022-09-02T01:34:58;100996.13;;;23.25
64488;BMP280;50864;45.050;39.014;2022-09-02T01:37:25;100996.09;;;23.22
64488;BMP280;50864;45.050;39.014;2022-09-02T01:39:52;100986.69;;;23.19
64488;BMP280;50864;45.050;39.014;2022-09-02T01:42:20;100981.59;;;23.18
64488;BMP280;50864;45.050;39.014;2022-09-02T01:44:46;100978.81;;;23.14
64488;BMP280;50864;45.050;39.014;2022-09-02T01:47:16;100965.53;;;23.13
64488;BMP280;50864;45.050;39.014;2022-09-02T01:49:43;100967.44;;;23.09
64488;BMP280;50864;45.050;39.014;2022-09-02T01:52:12;100958.75;;;23.03
64488;BMP280;50864;45.050;39.014;2022-09-02T01:54:39;100968.41;;;22.97
64488;BMP280;50864;45.050;39.014;2022-09-02T01:57:07;100972.66;;;22.91
64488;BMP280;50864;45.050;39.014;2022-09-02T01:59:33;100966.69;;;22.85
64488;BMP280;50864;45.050;39.014;2022-09-02T02:02:00;100963.47;;;22.80
64488;BMP280;50864;45.050;39.014;2022-09-02T02:04:26;100954.81;;;22.74
64488;BMP280;50864;45.050;39.014;2022-09-02T02:06:55;100955.47;;;22.68
64488;BMP280;50864;45.050;39.014;2022-09-02T02:09:22;100961.69;;;22.65
64488;BMP280;50864;45.050;39.014;2022-09-02T02:11:50;100962.44;;;22.62
64488;BMP280;50864;45.050;39.014;2022-09-02T02:14:16;100959.59;;;22.58
64488;BMP280;50864;45.050;39.014;2022-09-02T02:16:46;100961.50;;;22.54
64488;BMP280;50864;45.050;39.014;2022-09-02T02:19:12;100959.88;;;22.50
64488;BMP280;50864;45.050;39.014;2022-09-02T02:21:39;100968.34;;;22.45
64488;BMP280;50864;45.050;39.014;2022-09-02T02:24:06;100971.38;;;22.39
64488;BMP280;50864;45.050;39.014;2022-09-02T02:26:34;100967.78;;;22.35
64488;BMP280;50864;45.050;39.014;2022-09-02T02:29:02;100966.91;;;22.31
64488;BMP280;50864;45.050;39.014;2022-09-02T02:31:29;100975.78;;;22.25
64488;BMP280;50864;45.050;39.014;2022-09-02T02:33:56;100976.50;;;22.22
64488;BMP280;50864;45.050;39.014;2022-09-02T02:36:22;100973.25;;;22.16
64488;BMP280;50864;45.050;39.014;2022-09-02T02:38:49;100977.53;;;22.14
64488;BMP280;50864;45.050;39.014;2022-09-02T02:41:15;100991.09;;;22.10
64488;BMP280;50864;45.050;39.014;2022-09-02T02:43:42;100980.09;;;22.07
64488;BMP280;50864;45.050;39.014;2022-09-02T02:46:09;100987.06;;;22.04
64488;BMP280;50864;45.050;39.014;2022-09-02T02:48:37;100985.06;;;22.01
64488;BMP280;50864;45.050;39.014;2022-09-02T02:51:05;100992.03;;;21.99
64488;BMP280;50864;45.050;39.014;2022-09-02T02:53:32;100998.53;;;21.94
64488;BMP280;50864;45.050;39.014;2022-09-02T02:55:59;100989.56;;;21.94
64488;BMP280;50864;45.050;39.014;2022-09-02T02:58:25;101002.78;;;21.92
64488;BMP280;50864;45.050;39.014;2022-09-02T03:00:52;101003.50;;;21.89
64488;BMP280;50864;45.050;39.014;2022-09-02T03:03:19;101006.94;;;21.86
64488;BMP280;50864;45.050;39.014;2022-09-02T03:05:48;101001.84;;;21.84
64488;BMP280;50864;45.050;39.014;2022-09-02T03:08:17;101007.31;;;21.84
64488;BMP280;50864;45.050;39.014;2022-09-02T03:10:48;101022.94;;;21.87
64488;BMP280;50864;45.050;39.014;2022-09-02T03:13:20;101019.75;;;21.85
64488;BMP280;50864;45.050;39.014;2022-09-02T03:15:46;101041.84;;;21.80
64488;BMP280;50864;45.050;39.014;2022-09-02T03:18:13;101038.41;;;21.83
64488;BMP280;50864;45.050;39.014;2022-09-02T03:20:40;101046.25;;;21.85
64488;BMP280;50864;45.050;39.014;2022-09-02T03:23:07;101058.34;;;21.87
64488;BMP280;50864;45.050;39.014;2022-09-02T03:25:34;101064.66;;;21.91
64488;BMP280;50864;45.050;39.014;2022-09-02T03:28:02;101073.00;;;21.98
64488;BMP280;50864;45.050;39.014;2022-09-02T03:30:31;101079.28;;;22.02
64488;BMP280;50864;45.050;39.014;2022-09-02T03:32:59;101085.63;;;22.06
64488;BMP280;50864;45.050;39.014;2022-09-02T03:35:28;101087.28;;;22.11
64488;BMP280;50864;45.050;39.014;2022-09-02T03:37:54;101091.66;;;22.15
64488;BMP280;50864;45.050;39.014;2022-09-02T03:40:24;101090.94;;;22.18
64488;BMP280;50864;45.050;39.014;2022-09-02T03:42:51;101081.16;;;22.17
64488;BMP280;50864;45.050;39.014;2022-09-02T03:45:19;101087.34;;;22.14
64488;BMP280;50864;45.050;39.014;2022-09-02T03:47:47;101091.22;;;22.13
64488;BMP280;50864;45.050;39.014;2022-09-02T03:50:25;101089.62;;;22.12
64488;BMP280;50864;45.050;39.014;2022-09-02T03:52:52;101083.03;;;22.13
64488;BMP280;50864;45.050;39.014;2022-09-02T03:55:20;101083.41;;;22.12
64488;BMP280;50864;45.050;39.014;2022-09-02T03:57:47;101093.94;;;22.13
64488;BMP280;50864;45.050;39.014;2022-09-02T04:00:16;101086.56;;;22.14
64488;BMP280;50864;45.050;39.014;2022-09-02T04:02:43;101092.44;;;22.16
64488;BMP280;50864;45.050;39.014;2022-09-02T04:05:11;101085.56;;;22.22
64488;BMP280;50864;45.050;39.014;2022-09-02T04:07:38;101085.19;;;22.43
64488;BMP280;50864;45.050;39.014;2022-09-02T04:10:06;101090.91;;;22.57
64488;BMP280;50864;45.050;39.014;2022-09-02T04:12:35;101091.06;;;22.64
64488;BMP280;50864;45.050;39.014;2022-09-02T04:15:03;101094.09;;;22.81
64488;BMP280;50864;45.050;39.014;2022-09-02T04:17:30;101086.03;;;23.11
64488;BMP280;50864;45.050;39.014;2022-09-02T04:19:56;101089.12;;;23.32
64488;BMP280;50864;45.050;39.014;2022-09-02T04:22:22;101090.59;;;23.52
64488;BMP280;50864;45.050;39.014;2022-09-02T04:24:49;101083.53;;;23.78
64488;BMP280;50864;45.050;39.014;2022-09-02T04:27:15;101084.19;;;23.97
64488;BMP280;50864;45.050;39.014;2022-09-02T04:29:43;101095.38;;;24.19
64488;BMP280;50864;45.050;39.014;2022-09-02T04:32:09;101096.66;;;24.28
64488;BMP280;50864;45.050;39.014;2022-09-02T04:34:36;101085.38;;;24.33
64488;BMP280;50864;45.050;39.014;2022-09-02T04:37:02;101083.44;;;24.37
64488;BMP280;50864;45.050;39.014;2022-09-02T04:39:28;101067.78;;;24.34
64488;BMP280;50864;45.050;39.014;2022-09-02T04:41:55;101062.69;;;24.29
64488;BMP280;50864;45.050;39.014;2022-09-02T04:44:22;101057.69;;;24.38
64488;BMP280;50864;45.050;39.014;2022-09-02T04:46:50;101055.03;;;24.45
64488;BMP280;50864;45.050;39.014;2022-09-02T04:49:17;101063.78;;;24.65
64488;BMP280;50864;45.050;39.014;2022-09-02T04:51:43;101062.41;;;24.82
64488;BMP280;50864;45.050;39.014;2022-09-02T04:54:10;101062.06;;;24.90
64488;BMP280;50864;45.050;39.014;2022-09-02T04:56:36;101070.03;;;25.09
64488;BMP280;50864;45.050;39.014;2022-09-02T04:59:03;101066.28;;;25.31
64488;BMP280;50864;45.050;39.014;2022-09-02T05:01:33;101071.78;;;25.39
64488;BMP280;50864;45.050;39.014;2022-09-02T05:04:00;101078.88;;;25.50
64488;BMP280;50864;45.050;39.014;2022-09-02T05:06:30;101081.78;;;25.71
64488;BMP280;50864;45.050;39.014;2022-09-02T05:08:58;101075.59;;;25.96
64488;BMP280;50864;45.050;39.014;2022-09-02T05:11:27;101083.12;;;26.13
64488;BMP280;50864;45.050;39.014;2022-09-02T05:13:57;101081.53;;;26.12
64488;BMP280;50864;45.050;39.014;2022-09-02T05:16:31;101076.44;;;26.17
64488;BMP280;50864;45.050;39.014;2022-09-02T05:18:58;101093.34;;;26.37
64488;BMP280;50864;45.050;39.014;2022-09-02T05:21:27;101081.59;;;26.72
64488;BMP280;50864;45.050;39.014;2022-09-02T05:23:54;101087.87;;;27.00
64488;BMP280;50864;45.050;39.014;2022-09-02T05:26:20;101094.87;;;27.40
64488;BMP280;50864;45.050;39.014;2022-09-02T05:28:48;101092.81;;;27.69
64488;BMP280;50864;45.050;39.014;2022-09-02T05:31:17;101086.88;;;27.77
64488;BMP280;50864;45.050;39.014;2022-09-02T05:33:44;101093.81;;;28.03
64488;BMP280;50864;45.050;39.014;2022-09-02T05:36:19;101092.81;;;28.34
64488;BMP280;50864;45.050;39.014;2022-09-02T05:38:46;101103.72;;;28.48
64488;BMP280;50864;45.050;39.014;2022-09-02T05:41:15;101111.53;;;28.57
64488;BMP280;50864;45.050;39.014;2022-09-02T05:43:43;101113.72;;;28.80
64488;BMP280;50864;45.050;39.014;2022-09-02T05:46:14;101112.06;;;28.89
64488;BMP280;50864;45.050;39.014;2022-09-02T05:48:43;101114.25;;;29.05
64488;BMP280;50864;45.050;39.014;2022-09-02T05:51:28;101115.03;;;29.09
64488;BMP280;50864;45.050;39.014;2022-09-02T05:53:57;101122.50;;;29.42
64488;BMP280;50864;45.050;39.014;2022-09-02T05:56:24;101133.00;;;29.88
64488;BMP280;50864;45.050;39.014;2022-09-02T05:58:55;101133.47;;;30.10
64488;BMP280;50864;45.050;39.014;2022-09-02T06:01:22;101140.56;;;30.11
64488;BMP280;50864;45.050;39.014;2022-09-02T06:03:49;101155.06;;;30.15
64488;BMP280;50864;45.050;39.014;2022-09-02T06:06:19;101150.34;;;30.42
64488;BMP280;50864;45.050;39.014;2022-09-02T06:08:49;101153.94;;;30.85
64488;BMP280;50864;45.050;39.014;2022-09-02T06:11:16;101161.09;;;31.25
64488;BMP280;50864;45.050;39.014;2022-09-02T06:13:43;101162.37;;;31.41
64488;BMP280;50864;45.050;39.014;2022-09-02T06:16:13;101164.75;;;31.58
64488;BMP280;50864;45.050;39.014;2022-09-02T06:18:40;101165.41;;;31.66
64488;BMP280;50864;45.050;39.014;2022-09-02T17:36:46;101034.22;;;28.18
64488;BMP280;50864;45.050;39.014;2022-09-02T17:39:15;101029.31;;;28.11
64488;BMP280;50864;45.050;39.014;2022-09-02T17:41:44;101029.31;;;28.11
64488;BMP280;50864;45.050;39.014;2022-09-02T17:44:25;101019.09;;;27.36
64488;BMP280;50864;45.050;39.014;2022-09-02T17:46:51;101023.03;;;27.31
64488;BMP280;50864;45.050;39.014;2022-09-02T17:49:18;101020.69;;;27.30
64488;BMP280;50864;45.050;39.014;2022-09-02T17:51:45;101023.44;;;27.30
64488;BMP280;50864;45.050;39.014;2022-09-02T17:54:13;101021.06;;;27.28
64488;BMP280;50864;45.050;39.014;2022-09-02T17:57:28;101021.88;;;27.29
64488;BMP280;50864;45.050;39.014;2022-09-02T18:07:58;101005.44;;;27.14
64488;BMP280;50864;45.050;39.014;2022-09-02T18:10:32;101005.78;;;27.20
64488;BMP280;50864;45.050;39.014;2022-09-02T18:13:03;101010.91;;;27.22
64488;BMP280;50864;45.050;39.014;2022-09-02T18:18:19;101005.03;;;27.12
64488;BMP280;50864;45.050;39.014;2022-09-02T18:20:52;101007.00;;;27.08
64488;BMP280;50864;45.050;39.014;2022-09-02T18:25:52;101008.22;;;27.04
64488;BMP280;50864;45.050;39.014;2022-09-02T18:31:12;101007.06;;;26.87
64488;BMP280;50864;45.050;39.014;2022-09-02T18:33:54;100996.47;;;26.82
64488;BMP280;50864;45.050;39.014;2022-09-02T18:37:25;101002.41;;;26.77
64488;BMP280;50864;45.050;39.014;2022-09-02T18:39:45;100998.06;;;26.73
64488;BMP280;50864;45.050;39.014;2022-09-02T18:45:23;100998.47;;;26.64
64488;BMP280;50864;45.050;39.014;2022-09-02T18:47:57;100979.63;;;26.59
64488;BMP280;50864;45.050;39.014;2022-09-02T18:50:35;100988.28;;;26.58
64488;BMP280;50864;45.050;39.014;2022-09-02T18:53:05;100979.25;;;26.57
64488;BMP280;50864;45.050;39.014;2022-09-02T18:55:35;100983.56;;;26.58
64488;BMP280;50864;45.050;39.014;2022-09-02T19:00:53;100978.84;;;26.62
64488;BMP280;50864;45.050;39.014;2022-09-02T19:03:21;100974.94;;;26.63
64488;BMP280;50864;45.050;39.014;2022-09-02T19:05:47;100974.16;;;26.63
64488;BMP280;50864;45.050;39.014;2022-09-02T19:08:17;100970.62;;;26.62
64488;BMP280;50864;45.050;39.014;2022-09-02T19:11:07;100966.31;;;26.61
64488;BMP280;50864;45.050;39.014;2022-09-02T19:13:51;100972.59;;;26.58
64488;BMP280;50864;45.050;39.014;2022-09-02T19:16:27;100965.91;;;26.59
64488;BMP280;50864;45.050;39.014;2022-09-02T19:18:54;100970.22;;;26.56
64488;BMP280;50864;45.050;39.014;2022-09-02T19:24:04;100973.41;;;26.51
64488;BMP280;50864;45.050;39.014;2022-09-02T19:26:31;100967.12;;;26.51
64488;BMP280;50864;45.050;39.014;2022-09-02T19:28:58;100971.03;;;26.50
64488;BMP280;50864;45.050;39.014;2022-09-02T19:31:29;100965.53;;;26.46
64488;BMP280;50864;45.050;39.014;2022-09-02T19:33:59;100971.41;;;26.45
64488;BMP280;50864;45.050;39.014;2022-09-02T19:36:27;100967.88;;;26.44
64488;BMP280;50864;45.050;39.014;2022-09-02T19:38:54;100969.84;;;26.47
64488;BMP280;50864;45.050;39.014;2022-09-02T19:41:21;100956.91;;;26.48
64488;BMP280;50864;45.050;39.014;2022-09-02T19:43:50;100963.19;;;26.45
64488;BMP280;50864;45.050;39.014;2022-09-02T19:46:16;100973.38;;;26.41
64488;BMP280;50864;45.050;39.014;2022-09-02T19:48:45;100971.44;;;26.38
64488;BMP280;50864;45.050;39.014;2022-09-02T19:51:13;100985.16;;;26.38
64488;BMP280;50864;45.050;39.014;2022-09-02T19:53:41;100980.44;;;26.35
64488;BMP280;50864;45.050;39.014;2022-09-02T19:56:09;100975.72;;;26.32
64488;BMP280;50864;45.050;39.014;2022-09-02T19:58:37;100978.88;;;26.27
64488;BMP280;50864;45.050;39.014;2022-09-02T20:01:05;100977.28;;;26.19
64488;BMP280;50864;45.050;39.014;2022-09-02T20:03:32;100968.66;;;26.10
64488;BMP280;50864;45.050;39.014;2022-09-02T20:05:59;100976.50;;;26.01
64488;BMP280;50864;45.050;39.014;2022-09-02T20:08:26;100981.19;;;25.93
64488;BMP280;50864;45.050;39.014;2022-09-02T20:11:01;100980.38;;;25.85
64488;BMP280;50864;45.050;39.014;2022-09-02T20:13:29;100980.34;;;25.78
64488;BMP280;50864;45.050;39.014;2022-09-02T20:15:55;100981.12;;;25.72
64488;BMP280;50864;45.050;39.014;2022-09-02T20:18:23;100983.03;;;25.64
64488;BMP280;50864;45.050;39.014;2022-09-02T20:20:53;100978.31;;;25.58
64488;BMP280;50864;45.050;39.014;2022-09-02T20:23:20;100973.59;;;25.51
64488;BMP280;50864;45.050;39.014;2022-09-02T20:26:22;100977.50;;;25.47
64488;BMP280;50864;45.050;39.014;2022-09-02T20:31:51;100964.94;;;25.35
64488;BMP280;50864;45.050;39.014;2022-09-02T20:37:09;100963.31;;;25.27
64488;BMP280;50864;45.050;39.014;2022-09-02T20:45:27;100969.88;;;25.12
64488;BMP280;50864;45.050;39.014;2022-09-02T20:51:06;100968.28;;;25.04
64488;BMP280;50864;45.050;39.014;2022-09-02T20:56:57;100949.50;;;25.02
64488;BMP280;50864;45.050;39.014;2022-09-02T20:59:35;100954.19;;;25.02
64488;BMP280;50864;45.050;39.014;2022-09-02T21:02:13;100953.41;;;25.01
64488;BMP280;50864;45.050;39.014;2022-09-02T21:04:51;100953.00;;;25.03
64488;BMP280;50864;45.050;39.014;2022-09-02T21:07:34;100949.88;;;25.01
64488;BMP280;50864;45.050;39.014;2022-09-02T21:10:21;100953.41;;;24.98
64488;BMP280;50864;45.050;39.014;2022-09-02T21:13:14;100959.59;;;24.91
64488;BMP280;50864;45.050;39.014;2022-09-02T21:15:55;100968.56;;;24.88
64488;BMP280;50864;45.050;39.014;2022-09-02T21:18:42;100954.88;;;24.88
64488;BMP280;50864;45.050;39.014;2022-09-02T21:26:39;100947.00;;;24.80
64488;BMP280;50864;45.050;39.014;2022-09-02T21:34:28;100947.72;;;24.73
64488;BMP280;50864;45.050;39.014;2022-09-02T21:36:58;100947.72;;;24.69
64488;BMP280;50864;45.050;39.014;2022-09-02T21:39:27;100948.84;;;24.65
64488;BMP280;50864;45.050;39.014;2022-09-02T21:47:20;100961.63;;;24.47
64488;BMP280;50864;45.050;39.014;2022-09-02T21:55:27;100958.13;;;24.46
64488;BMP280;50864;45.050;39.014;2022-09-02T21:58:16;100960.84;;;24.46
64488;BMP280;50864;45.050;39.014;2022-09-02T22:00:50;100961.22;;;24.45
64488;BMP280;50864;45.050;39.014;2022-09-02T22:09:13;100942.03;;;24.41
64488;BMP280;50864;45.050;39.014;2022-09-02T22:14:17;100953.69;;;24.35
64488;BMP280;50864;45.050;39.014;2022-09-02T22:16:58;100943.53;;;24.35
64488;BMP280;50864;45.050;39.014;2022-09-02T22:19:31;100953.31;;;24.33
64488;BMP280;50864;45.050;39.014;2022-09-02T22:22:08;100944.28;;;24.29
64488;BMP280;50864;45.050;39.014;2022-09-02T22:24:37;100945.44;;;24.28
64488;BMP280;50864;45.050;39.014;2022-09-02T22:30:04;100939.56;;;24.26
64488;BMP280;50864;45.050;39.014;2022-09-02T22:32:46;100938.75;;;24.25
64488;BMP280;50864;45.050;39.014;2022-09-02T22:38:16;100940.66;;;24.18
64488;BMP280;50864;45.050;39.014;2022-09-02T22:41:02;100934.00;;;24.15
64488;BMP280;50864;45.050;39.014;2022-09-02T22:43:41;100923.81;;;24.12
64488;BMP280;50864;45.050;39.014;2022-09-02T22:46:14;100928.84;;;24.10
64488;BMP280;50864;45.050;39.014;2022-09-02T22:49:05;100926.44;;;24.05
64488;BMP280;50864;45.050;39.014;2022-09-02T22:54:43;100918.09;;;23.91
64488;BMP280;50864;45.050;39.014;2022-09-02T23:00:10;100909.47;;;23.85
64488;BMP280;50864;45.050;39.014;2022-09-02T23:02:45;100910.59;;;23.81
64488;BMP280;50864;45.050;39.014;2022-09-02T23:05:28;100915.22;;;23.77
64488;BMP280;50864;45.050;39.014;2022-09-02T23:08:13;100916.75;;;23.74
64488;BMP280;50864;45.050;39.014;2022-09-02T23:10:57;100925.28;;;23.69
64488;BMP280;50864;45.050;39.014;2022-09-02T23:13:54;100935.03;;;23.67
64488;BMP280;50864;45.050;39.014;2022-09-02T23:16:52;100927.19;;;23.62
64488;BMP280;50864;45.050;39.014;2022-09-02T23:22:13;100938.50;;;23.64
64488;BMP280;50864;45.050;39.014;2022-09-02T23:28:11;100931.41;;;23.59
64488;BMP280;50864;45.050;39.014;2022-09-02T23:36:31;100941.91;;;23.53
64488;BMP280;50864;45.050;39.014;2022-09-02T23:41:31;100946.16;;;23.51
64488;BMP280;50864;45.050;39.014;2022-09-02T23:44:03;100947.69;;;23.48
